Terminal Aerodrome Forecast
Issued by NWS

Current Version | Previous Version | Graphics & Text | Print | Product List | Glossary On
Versions: 1 2 3 4 5 6 7 8 9 10 11 12 13 14 15 16 17 18 19 20 21 22 23 24 25 26 27 28 29 30 31 32 33
000
FTUS41 KRNK 121510 AAA
TAFLWB
TAF AMD
KLWB 121510Z 1215/1312 VRB03KT P6SM OVC045
     FM122000 29010G20KT 4SM -SHSN BKN015
      TEMPO 1222/1302 2SM -SHSN OVC007
     FM130200 30015G30KT 3SM -SHSN BKN012
      TEMPO 1304/1308 1SM -SHSN=

USA.gov is the U.S. government's official web portal to all federal, state and local government web resources and services.